sensor_id;sensor_type;location;lat;lon;timestamp;temperature;humidity
13817;DHT22;6979;52.116;5.286;2023-04-01T00:01:13;14.20;99.90
13817;DHT22;6979;52.116;5.286;2023-04-01T00:03:41;14.20;99.90
13817;DHT22;6979;52.116;5.286;2023-04-01T00:06:09;14.10;99.90
13817;DHT22;6979;52.116;5.286;2023-04-01T00:08:38;14.20;99.90
13817;DHT22;6979;52.116;5.286;2023-04-01T00:11:05;14.20;99.90
13817;DHT22;6979;52.116;5.286;2023-04-01T00:13:33;14.20;99.90
13817;DHT22;6979;52.116;5.286;2023-04-01T00:16:01;14.20;99.90
13817;DHT22;6979;52.116;5.286;2023-04-01T00:18:30;14.20;99.90
13817;DHT22;6979;52.116;5.286;2023-04-01T00:20:56;14.20;99.90
13817;DHT22;6979;52.116;5.286;2023-04-01T00:23:23;14.10;99.90
13817;DHT22;6979;52.116;5.286;2023-04-01T00:25:50;14.10;99.90
13817;DHT22;6979;52.116;5.286;2023-04-01T00:28:19;14.20;99.90
13817;DHT22;6979;52.116;5.286;2023-04-01T00:30:48;14.20;99.90
13817;DHT22;6979;52.116;5.286;2023-04-01T00:33:15;14.10;99.90
13817;DHT22;6979;52.116;5.286;2023-04-01T00:35:42;14.10;99.90
13817;DHT22;6979;52.116;5.286;2023-04-01T00:38:09;14.10;99.90
13817;DHT22;6979;52.116;5.286;2023-04-01T00:40:39;14.10;99.90
13817;DHT22;6979;52.116;5.286;2023-04-01T00:43:11;14.10;99.90
13817;DHT22;6979;52.116;5.286;2023-04-01T00:45:42;14.10;99.90
13817;DHT22;6979;52.116;5.286;2023-04-01T00:48:13;14.00;99.90
13817;DHT22;6979;52.116;5.286;2023-04-01T00:50:43;14.10;99.90
13817;DHT22;6979;52.116;5.286;2023-04-01T00:53:13;14.00;99.90
13817;DHT22;6979;52.116;5.286;2023-04-01T00:55:46;14.00;99.90
13817;DHT22;6979;52.116;5.286;2023-04-01T00:58:17;14.00;99.90
13817;DHT22;6979;52.116;5.286;2023-04-01T01:00:47;14.00;99.90
13817;DHT22;6979;52.116;5.286;2023-04-01T01:03:18;14.00;99.90
13817;DHT22;6979;52.116;5.286;2023-04-01T01:06:02;14.00;99.90
13817;DHT22;6979;52.116;5.286;2023-04-01T01:08:40;13.90;99.90
13817;DHT22;6979;52.116;5.286;2023-04-01T01:11:11;13.90;99.90
13817;DHT22;6979;52.116;5.286;2023-04-01T01:13:43;13.90;99.90
13817;DHT22;6979;52.116;5.286;2023-04-01T01:16:17;14.00;99.90
13817;DHT22;6979;52.116;5.286;2023-04-01T01:18:52;13.90;99.90
13817;DHT22;6979;52.116;5.286;2023-04-01T01:24:43;13.90;99.90
13817;DHT22;6979;52.116;5.286;2023-04-01T01:27:16;13.90;99.90
13817;DHT22;6979;52.116;5.286;2023-04-01T01:30:11;13.90;99.90
13817;DHT22;6979;52.116;5.286;2023-04-01T01:35:46;13.80;99.90
13817;DHT22;6979;52.116;5.286;2023-04-01T01:38:21;13.80;99.90
13817;DHT22;6979;52.116;5.286;2023-04-01T01:41:00;13.70;99.90
13817;DHT22;6979;52.116;5.286;2023-04-01T01:43:31;13.70;99.90
13817;DHT22;6979;52.116;5.286;2023-04-01T01:46:03;13.70;99.90
13817;DHT22;6979;52.116;5.286;2023-04-01T01:48:34;13.70;99.90
13817;DHT22;6979;52.116;5.286;2023-04-01T01:51:04;13.70;99.90
13817;DHT22;6979;52.116;5.286;2023-04-01T01:53:31;13.60;99.90
13817;DHT22;6979;52.116;5.286;2023-04-01T01:55:58;13.60;99.90
13817;DHT22;6979;52.116;5.286;2023-04-01T01:58:29;13.60;99.90
13817;DHT22;6979;52.116;5.286;2023-04-01T02:00:59;13.60;99.90
13817;DHT22;6979;52.116;5.286;2023-04-01T02:03:30;13.60;99.90
13817;DHT22;6979;52.116;5.286;2023-04-01T02:05:59;13.60;99.90
13817;DHT22;6979;52.116;5.286;2023-04-01T02:08:33;13.60;99.90
13817;DHT22;6979;52.116;5.286;2023-04-01T02:11:02;13.50;99.90
13817;DHT22;6979;52.116;5.286;2023-04-01T02:13:37;13.50;99.90
13817;DHT22;6979;52.116;5.286;2023-04-01T02:16:10;13.50;99.90
13817;DHT22;6979;52.116;5.286;2023-04-01T02:18:38;13.50;99.90
13817;DHT22;6979;52.116;5.286;2023-04-01T02:21:07;13.50;99.90
13817;DHT22;6979;52.116;5.286;2023-04-01T02:23:36;13.50;99.90
13817;DHT22;6979;52.116;5.286;2023-04-01T02:26:05;13.50;99.90
13817;DHT22;6979;52.116;5.286;2023-04-01T02:28:35;13.50;99.90
13817;DHT22;6979;52.116;5.286;2023-04-01T02:31:03;13.50;99.90
13817;DHT22;6979;52.116;5.286;2023-04-01T02:33:31;13.50;99.90
13817;DHT22;6979;52.116;5.286;2023-04-01T02:35:59;13.40;99.90
13817;DHT22;6979;52.116;5.286;2023-04-01T02:38:26;13.40;99.90
13817;DHT22;6979;52.116;5.286;2023-04-01T02:40:59;13.40;99.90
13817;DHT22;6979;52.116;5.286;2023-04-01T02:43:27;13.40;99.90
13817;DHT22;6979;52.116;5.286;2023-04-01T02:45:55;13.40;99.90
13817;DHT22;6979;52.116;5.286;2023-04-01T02:48:22;13.40;99.90
13817;DHT22;6979;52.116;5.286;2023-04-01T02:50:49;13.40;99.90
13817;DHT22;6979;52.116;5.286;2023-04-01T02:53:17;13.40;99.90
13817;DHT22;6979;52.116;5.286;2023-04-01T02:55:45;13.40;99.90
13817;DHT22;6979;52.116;5.286;2023-04-01T02:58:13;13.40;99.90
13817;DHT22;6979;52.116;5.286;2023-04-01T03:00:40;13.40;99.90
13817;DHT22;6979;52.116;5.286;2023-04-01T03:03:07;13.40;99.90
13817;DHT22;6979;52.116;5.286;2023-04-01T03:05:36;13.40;99.90
13817;DHT22;6979;52.116;5.286;2023-04-01T03:08:03;13.40;99.90
13817;DHT22;6979;52.116;5.286;2023-04-01T03:10:32;13.40;99.90
13817;DHT22;6979;52.116;5.286;2023-04-01T03:12:59;13.40;99.90
13817;DHT22;6979;52.116;5.286;2023-04-01T03:15:28;13.40;99.90
13817;DHT22;6979;52.116;5.286;2023-04-01T03:17:55;13.50;99.90
13817;DHT22;6979;52.116;5.286;2023-04-01T03:20:23;13.50;99.90
13817;DHT22;6979;52.116;5.286;2023-04-01T03:22:51;13.50;99.90
13817;DHT22;6979;52.116;5.286;2023-04-01T03:25:18;13.50;99.90
13817;DHT22;6979;52.116;5.286;2023-04-01T03:27:46;13.50;99.90
13817;DHT22;6979;52.116;5.286;2023-04-01T03:30:13;13.50;99.90
13817;DHT22;6979;52.116;5.286;2023-04-01T03:32:50;13.50;99.90
13817;DHT22;6979;52.116;5.286;2023-04-01T03:35:17;13.50;99.90
13817;DHT22;6979;52.116;5.286;2023-04-01T03:37:45;13.50;99.90
13817;DHT22;6979;52.116;5.286;2023-04-01T03:40:12;13.50;99.90
13817;DHT22;6979;52.116;5.286;2023-04-01T03:42:39;13.60;99.90
13817;DHT22;6979;52.116;5.286;2023-04-01T03:45:07;13.60;99.90
13817;DHT22;6979;52.116;5.286;2023-04-01T03:47:34;13.60;99.90
13817;DHT22;6979;52.116;5.286;2023-04-01T03:50:04;13.60;99.90
13817;DHT22;6979;52.116;5.286;2023-04-01T03:52:31;13.60;99.90
13817;DHT22;6979;52.116;5.286;2023-04-01T03:54:58;13.60;99.90
13817;DHT22;6979;52.116;5.286;2023-04-01T03:57:26;13.70;99.90
13817;DHT22;6979;52.116;5.286;2023-04-01T03:59:57;13.70;99.90
13817;DHT22;6979;52.116;5.286;2023-04-01T04:02:25;13.70;99.90
13817;DHT22;6979;52.116;5.286;2023-04-01T04:04:52;13.70;99.90
13817;DHT22;6979;52.116;5.286;2023-04-01T04:07:22;13.70;99.90
13817;DHT22;6979;52.116;5.286;2023-04-01T04:10:01;13.70;99.90
13817;DHT22;6979;52.116;5.286;2023-04-01T04:12:29;13.80;99.90
13817;DHT22;6979;52.116;5.286;2023-04-01T04:14:55;13.80;99.90
13817;DHT22;6979;52.116;5.286;2023-04-01T04:17:22;13.80;99.90
13817;DHT22;6979;52.116;5.286;2023-04-01T04:19:49;13.80;99.90
13817;DHT22;6979;52.116;5.286;2023-04-01T04:22:16;13.80;99.90
13817;DHT22;6979;52.116;5.286;2023-04-01T04:24:45;13.80;99.90
13817;DHT22;6979;52.116;5.286;2023-04-01T04:27:12;13.80;99.90
13817;DHT22;6979;52.116;5.286;2023-04-01T04:30:12;13.80;99.90
13817;DHT22;6979;52.116;5.286;2023-04-01T04:32:40;13.90;99.90
13817;DHT22;6979;52.116;5.286;2023-04-01T04:35:08;13.90;99.90
13817;DHT22;6979;52.116;5.286;2023-04-01T04:37:38;13.90;99.90
13817;DHT22;6979;52.116;5.286;2023-04-01T04:40:07;13.90;99.90
13817;DHT22;6979;52.116;5.286;2023-04-01T04:42:35;13.90;99.90
13817;DHT22;6979;52.116;5.286;2023-04-01T04:45:09;14.00;99.90
13817;DHT22;6979;52.116;5.286;2023-04-01T04:47:40;14.00;99.90
13817;DHT22;6979;52.116;5.286;2023-04-01T04:50:08;14.00;99.90
13817;DHT22;6979;52.116;5.286;2023-04-01T04:52:39;14.00;99.90
13817;DHT22;6979;52.116;5.286;2023-04-01T04:55:08;14.00;99.90
13817;DHT22;6979;52.116;5.286;2023-04-01T04:57:36;14.10;99.90
13817;DHT22;6979;52.116;5.286;2023-04-01T05:00:04;14.00;99.90
13817;DHT22;6979;52.116;5.286;2023-04-01T05:02:46;14.10;99.90
13817;DHT22;6979;52.116;5.286;2023-04-01T05:05:16;14.10;99.90
13817;DHT22;6979;52.116;5.286;2023-04-01T05:07:43;14.10;99.90
13817;DHT22;6979;52.116;5.286;2023-04-01T05:10:12;14.10;99.90
13817;DHT22;6979;52.116;5.286;2023-04-01T05:12:39;14.10;99.90
13817;DHT22;6979;52.116;5.286;2023-04-01T05:15:08;14.10;99.90
13817;DHT22;6979;52.116;5.286;2023-04-01T05:17:38;14.10;99.90
13817;DHT22;6979;52.116;5.286;2023-04-01T05:20:06;14.10;99.90
13817;DHT22;6979;52.116;5.286;2023-04-01T05:22:33;14.10;99.90
13817;DHT22;6979;52.116;5.286;2023-04-01T05:25:01;14.10;99.90
13817;DHT22;6979;52.116;5.286;2023-04-01T05:27:30;14.10;99.90
13817;DHT22;6979;52.116;5.286;2023-04-01T05:30:07;14.20;99.90
13817;DHT22;6979;52.116;5.286;2023-04-01T05:33:13;14.20;99.90
13817;DHT22;6979;52.116;5.286;2023-04-01T05:35:42;14.20;99.90
13817;DHT22;6979;52.116;5.286;2023-04-01T05:38:12;14.20;99.90
13817;DHT22;6979;52.116;5.286;2023-04-01T05:40:40;14.20;99.90
13817;DHT22;6979;52.116;5.286;2023-04-01T05:43:09;14.20;99.90
13817;DHT22;6979;52.116;5.286;2023-04-01T05:45:37;14.20;99.90
13817;DHT22;6979;52.116;5.286;2023-04-01T05:48:14;14.20;99.90
13817;DHT22;6979;52.116;5.286;2023-04-01T05:50:42;14.20;99.90
13817;DHT22;6979;52.116;5.286;2023-04-01T05:53:12;14.20;99.90
13817;DHT22;6979;52.116;5.286;2023-04-01T05:55:42;14.20;99.90
13817;DHT22;6979;52.116;5.286;2023-04-01T05:58:14;14.20;99.90
13817;DHT22;6979;52.116;5.286;2023-04-01T06:00:44;14.20;99.90
13817;DHT22;6979;52.116;5.286;2023-04-01T06:03:14;14.20;99.90
13817;DHT22;6979;52.116;5.286;2023-04-01T06:05:43;14.20;99.90
13817;DHT22;6979;52.116;5.286;2023-04-01T06:08:12;14.20;99.90
13817;DHT22;6979;52.116;5.286;2023-04-01T06:11:03;14.20;99.90
13817;DHT22;6979;52.116;5.286;2023-04-01T06:13:45;14.20;99.90
13817;DHT22;6979;52.116;5.286;2023-04-01T06:16:22;14.20;99.90
13817;DHT22;6979;52.116;5.286;2023-04-01T06:19:16;14.20;99.90
13817;DHT22;6979;52.116;5.286;2023-04-01T06:25:12;14.20;99.90
13817;DHT22;6979;52.116;5.286;2023-04-01T06:27:53;14.20;99.90
13817;DHT22;6979;52.116;5.286;2023-04-01T06:30:34;14.20;99.90
13817;DHT22;6979;52.116;5.286;2023-04-01T06:33:17;14.20;99.90
13817;DHT22;6979;52.116;5.286;2023-04-01T06:36:11;14.20;99.90
13817;DHT22;6979;52.116;5.286;2023-04-01T06:39:11;14.20;99.90
13817;DHT22;6979;52.116;5.286;2023-04-01T06:44:45;14.20;99.90
13817;DHT22;6979;52.116;5.286;2023-04-01T06:47:46;14.20;99.90
13817;DHT22;6979;52.116;5.286;2023-04-01T06:50:40;14.20;99.90
13817;DHT22;6979;52.116;5.286;2023-04-01T06:53:46;14.20;99.90
13817;DHT22;6979;52.116;5.286;2023-04-01T06:56:42;14.20;99.90
13817;DHT22;6979;52.116;5.286;2023-04-01T07:02:23;14.20;99.90
13817;DHT22;6979;52.116;5.286;2023-04-01T07:04:57;14.30;99.90
13817;DHT22;6979;52.116;5.286;2023-04-01T07:07:33;14.20;99.90
13817;DHT22;6979;52.116;5.286;2023-04-01T07:10:14;14.30;99.90
13817;DHT22;6979;52.116;5.286;2023-04-01T07:13:04;14.30;99.90
13817;DHT22;6979;52.116;5.286;2023-04-01T07:16:11;14.40;99.90
13817;DHT22;6979;52.116;5.286;2023-04-01T07:18:48;14.40;99.90
13817;DHT22;6979;52.116;5.286;2023-04-01T07:21:35;14.40;99.90
13817;DHT22;6979;52.116;5.286;2023-04-01T07:24:16;14.40;99.90
13817;DHT22;6979;52.116;5.286;2023-04-01T07:26:55;14.40;99.90
13817;DHT22;6979;52.116;5.286;2023-04-01T07:29:28;14.40;99.90
13817;DHT22;6979;52.116;5.286;2023-04-01T07:32:17;14.50;99.90
13817;DHT22;6979;52.116;5.286;2023-04-01T07:35:05;14.50;99.90
13817;DHT22;6979;52.116;5.286;2023-04-01T07:37:50;14.50;99.90
13817;DHT22;6979;52.116;5.286;2023-04-01T07:40:30;14.50;99.90
13817;DHT22;6979;52.116;5.286;2023-04-01T07:43:22;14.50;99.90
13817;DHT22;6979;52.116;5.286;2023-04-01T07:46:17;14.50;99.90
13817;DHT22;6979;52.116;5.286;2023-04-01T07:48:50;14.60;99.90
13817;DHT22;6979;52.116;5.286;2023-04-01T07:51:27;14.50;99.90
13817;DHT22;6979;52.116;5.286;2023-04-01T07:54:02;14.60;99.90
13817;DHT22;6979;52.116;5.286;2023-04-01T07:56:37;14.60;99.90
13817;DHT22;6979;52.116;5.286;2023-04-01T07:59:16;14.60;99.90
13817;DHT22;6979;52.116;5.286;2023-04-01T08:02:14;14.60;99.90
13817;DHT22;6979;52.116;5.286;2023-04-01T08:04:55;14.60;99.90
13817;DHT22;6979;52.116;5.286;2023-04-01T08:07:26;14.60;99.90
13817;DHT22;6979;52.116;5.286;2023-04-01T08:10:29;14.60;99.90
13817;DHT22;6979;52.116;5.286;2023-04-01T08:13:25;14.60;99.90
13817;DHT22;6979;52.116;5.286;2023-04-01T08:16:19;14.60;99.90
13817;DHT22;6979;52.116;5.286;2023-04-01T08:19:02;14.60;99.90
13817;DHT22;6979;52.116;5.286;2023-04-01T08:21:41;14.60;99.90
13817;DHT22;6979;52.116;5.286;2023-04-01T08:24:16;14.70;99.90
13817;DHT22;6979;52.116;5.286;2023-04-01T08:26:48;14.60;99.90
13817;DHT22;6979;52.116;5.286;2023-04-01T08:29:19;14.70;99.90
13817;DHT22;6979;52.116;5.286;2023-04-01T08:31:51;14.70;99.90
13817;DHT22;6979;52.116;5.286;2023-04-01T08:34:21;14.70;99.90
13817;DHT22;6979;52.116;5.286;2023-04-01T08:36:53;14.80;99.90
13817;DHT22;6979;52.116;5.286;2023-04-01T08:39:29;14.80;99.90
13817;DHT22;6979;52.116;5.286;2023-04-01T08:45:26;14.80;99.90
13817;DHT22;6979;52.116;5.286;2023-04-01T08:51:31;14.80;99.90
13817;DHT22;6979;52.116;5.286;2023-04-01T08:54:20;14.90;99.90
13817;DHT22;6979;52.116;5.286;2023-04-01T08:56:56;14.90;99.90
13817;DHT22;6979;52.116;5.286;2023-04-01T09:02:51;14.90;99.90
13817;DHT22;6979;52.116;5.286;2023-04-01T09:08:38;15.00;99.90
13817;DHT22;6979;52.116;5.286;2023-04-01T09:11:16;15.00;99.90
13817;DHT22;6979;52.116;5.286;2023-04-01T09:14:17;15.00;99.90
13817;DHT22;6979;52.116;5.286;2023-04-01T09:20:27;15.00;99.90
13817;DHT22;6979;52.116;5.286;2023-04-01T09:23:28;15.10;99.90
13817;DHT22;6979;52.116;5.286;2023-04-01T09:26:12;15.10;99.90
13817;DHT22;6979;52.116;5.286;2023-04-01T09:28:47;15.10;99.90
13817;DHT22;6979;52.116;5.286;2023-04-01T09:31:44;15.20;99.90
13817;DHT22;6979;52.116;5.286;2023-04-01T09:34:53;15.20;99.90
13817;DHT22;6979;52.116;5.286;2023-04-01T09:37:34;15.20;99.90
13817;DHT22;6979;52.116;5.286;2023-04-01T09:40:16;15.20;99.90
13817;DHT22;6979;52.116;5.286;2023-04-01T09:43:01;15.20;99.90
13817;DHT22;6979;52.116;5.286;2023-04-01T09:45:41;15.30;99.90
13817;DHT22;6979;52.116;5.286;2023-04-01T09:48:19;15.30;99.90
13817;DHT22;6979;52.116;5.286;2023-04-01T09:50:55;15.30;99.90
13817;DHT22;6979;52.116;5.286;2023-04-01T09:53:42;15.30;99.90
13817;DHT22;6979;52.116;5.286;2023-04-01T09:59:59;15.30;99.90
13817;DHT22;6979;52.116;5.286;2023-04-01T10:03:13;15.30;99.90
13817;DHT22;6979;52.116;5.286;2023-04-01T10:12:12;15.30;99.90
13817;DHT22;6979;52.116;5.286;2023-04-01T10:15:32;15.30;99.90
13817;DHT22;6979;52.116;5.286;2023-04-01T10:18:33;15.40;99.90
13817;DHT22;6979;52.116;5.286;2023-04-01T10:21:28;15.50;99.90
13817;DHT22;6979;52.116;5.286;2023-04-01T10:27:31;15.70;99.90
13817;DHT22;6979;52.116;5.286;2023-04-01T10:30:22;15.80;99.90
13817;DHT22;6979;52.116;5.286;2023-04-01T10:33:33;16.00;99.90
13817;DHT22;6979;52.116;5.286;2023-04-01T10:36:34;16.10;99.90
13817;DHT22;6979;52.116;5.286;2023-04-01T10:39:48;16.20;99.90
13817;DHT22;6979;52.116;5.286;2023-04-01T10:49:57;16.40;99.90
13817;DHT22;6979;52.116;5.286;2023-04-01T10:53:15;16.40;99.90
13817;DHT22;6979;52.116;5.286;2023-04-01T10:59:52;16.50;99.90
13817;DHT22;6979;52.116;5.286;2023-04-01T11:03:14;16.60;99.90
13817;DHT22;6979;52.116;5.286;2023-04-01T11:16:23;16.80;99.90
13817;DHT22;6979;52.116;5.286;2023-04-01T11:22:16;16.80;99.90
13817;DHT22;6979;52.116;5.286;2023-04-01T11:25:14;16.80;99.90
13817;DHT22;6979;52.116;5.286;2023-04-01T11:28:16;16.80;99.90
13817;DHT22;6979;52.116;5.286;2023-04-01T11:31:04;16.80;99.90
13817;DHT22;6979;52.116;5.286;2023-04-01T11:33:49;16.90;99.90
13817;DHT22;6979;52.116;5.286;2023-04-01T11:36:28;16.90;99.90
13817;DHT22;6979;52.116;5.286;2023-04-01T11:39:14;16.90;99.90
13817;DHT22;6979;52.116;5.286;2023-04-01T11:42:12;16.90;99.90
13817;DHT22;6979;52.116;5.286;2023-04-01T11:45:12;16.90;99.90
13817;DHT22;6979;52.116;5.286;2023-04-01T11:47:55;17.00;99.90
13817;DHT22;6979;52.116;5.286;2023-04-01T11:50:33;17.00;99.90
13817;DHT22;6979;52.116;5.286;2023-04-01T11:53:33;17.10;99.90
13817;DHT22;6979;52.116;5.286;2023-04-01T11:56:14;17.30;99.90
13817;DHT22;6979;52.116;5.286;2023-04-01T11:59:32;17.30;99.90
13817;DHT22;6979;52.116;5.286;2023-04-01T12:02:12;17.40;99.90
13817;DHT22;6979;52.116;5.286;2023-04-01T12:08:01;17.40;99.90
13817;DHT22;6979;52.116;5.286;2023-04-01T12:10:37;17.40;99.90
13817;DHT22;6979;52.116;5.286;2023-04-01T12:13:16;17.40;99.90
13817;DHT22;6979;52.116;5.286;2023-04-01T12:16:00;17.30;99.90
13817;DHT22;6979;52.116;5.286;2023-04-01T12:18:35;17.30;99.90
13817;DHT22;6979;52.116;5.286;2023-04-01T12:21:15;17.20;99.90
13817;DHT22;6979;52.116;5.286;2023-04-01T12:24:24;17.20;99.90
13817;DHT22;6979;52.116;5.286;2023-04-01T12:30:24;17.00;99.90
13817;DHT22;6979;52.116;5.286;2023-04-01T12:33:05;17.00;99.90
13817;DHT22;6979;52.116;5.286;2023-04-01T12:35:47;16.90;99.90
13817;DHT22;6979;52.116;5.286;2023-04-01T12:38:31;16.80;99.90
13817;DHT22;6979;52.116;5.286;2023-04-01T12:41:12;16.80;99.90
13817;DHT22;6979;52.116;5.286;2023-04-01T12:44:06;16.80;99.90
13817;DHT22;6979;52.116;5.286;2023-04-01T12:46:56;16.70;99.90
13817;DHT22;6979;52.116;5.286;2023-04-01T12:52:43;16.60;99.90
13817;DHT22;6979;52.116;5.286;2023-04-01T13:01:29;16.40;99.90
13817;DHT22;6979;52.116;5.286;2023-04-01T13:07:19;16.40;99.90
13817;DHT22;6979;52.116;5.286;2023-04-01T13:09:57;16.40;99.90
13817;DHT22;6979;52.116;5.286;2023-04-01T13:12:47;16.40;99.90
13817;DHT22;6979;52.116;5.286;2023-04-01T13:15:25;16.40;99.90
13817;DHT22;6979;52.116;5.286;2023-04-01T13:18:10;16.40;99.90
13817;DHT22;6979;52.116;5.286;2023-04-01T13:20:48;16.40;99.90
13817;DHT22;6979;52.116;5.286;2023-04-01T13:23:32;16.40;99.90
13817;DHT22;6979;52.116;5.286;2023-04-01T13:26:11;16.40;99.90
13817;DHT22;6979;52.116;5.286;2023-04-01T13:28:46;16.40;99.90
13817;DHT22;6979;52.116;5.286;2023-04-01T13:31:27;16.30;99.90
13817;DHT22;6979;52.116;5.286;2023-04-01T13:34:06;16.30;99.90
13817;DHT22;6979;52.116;5.286;2023-04-01T13:36:48;16.30;99.90
13817;DHT22;6979;52.116;5.286;2023-04-01T13:39:40;16.30;99.90
13817;DHT22;6979;52.116;5.286;2023-04-01T13:42:18;16.20;99.90
13817;DHT22;6979;52.116;5.286;2023-04-01T13:44:53;16.20;99.90
13817;DHT22;6979;52.116;5.286;2023-04-01T13:50:28;16.10;99.90
13817;DHT22;6979;52.116;5.286;2023-04-01T13:53:06;16.00;99.90
13817;DHT22;6979;52.116;5.286;2023-04-01T13:55:54;16.00;99.90
13817;DHT22;6979;52.116;5.286;2023-04-01T13:58:54;15.90;99.90
13817;DHT22;6979;52.116;5.286;2023-04-01T14:01:31;15.90;99.90
13817;DHT22;6979;52.116;5.286;2023-04-01T14:04:31;15.80;99.90
13817;DHT22;6979;52.116;5.286;2023-04-01T14:07:08;15.80;99.90
13817;DHT22;6979;52.116;5.286;2023-04-01T14:09:51;15.70;99.90
13817;DHT22;6979;52.116;5.286;2023-04-01T14:12:30;15.60;99.90
13817;DHT22;6979;52.116;5.286;2023-04-01T14:15:18;15.60;99.90
13817;DHT22;6979;52.116;5.286;2023-04-01T14:17:58;15.60;99.90
13817;DHT22;6979;52.116;5.286;2023-04-01T14:20:35;15.60;99.90
13817;DHT22;6979;52.116;5.286;2023-04-01T14:23:23;15.60;99.90
13817;DHT22;6979;52.116;5.286;2023-04-01T14:26:22;15.60;99.90
13817;DHT22;6979;52.116;5.286;2023-04-01T14:29:07;15.60;99.90
13817;DHT22;6979;52.116;5.286;2023-04-01T14:32:15;15.60;99.90
13817;DHT22;6979;52.116;5.286;2023-04-01T14:35:22;15.60;99.90
13817;DHT22;6979;52.116;5.286;2023-04-01T14:41:30;15.60;99.90
13817;DHT22;6979;52.116;5.286;2023-04-01T14:51:16;15.50;99.90
13817;DHT22;6979;52.116;5.286;2023-04-01T14:53:56;15.50;99.90
13817;DHT22;6979;52.116;5.286;2023-04-01T14:56:39;15.50;99.90
13817;DHT22;6979;52.116;5.286;2023-04-01T14:59:10;15.50;99.90
13817;DHT22;6979;52.116;5.286;2023-04-01T15:02:58;15.50;99.90
13817;DHT22;6979;52.116;5.286;2023-04-01T15:05:26;15.50;99.90
13817;DHT22;6979;52.116;5.286;2023-04-01T15:08:12;15.50;99.90
13817;DHT22;6979;52.116;5.286;2023-04-01T15:11:21;15.50;99.90
13817;DHT22;6979;52.116;5.286;2023-04-01T15:14:18;15.60;99.90
13817;DHT22;6979;52.116;5.286;2023-04-01T15:17:05;15.60;99.90
13817;DHT22;6979;52.116;5.286;2023-04-01T15:20:00;15.60;99.90
13817;DHT22;6979;52.116;5.286;2023-04-01T15:22:59;15.60;99.90
13817;DHT22;6979;52.116;5.286;2023-04-01T15:25:51;15.60;99.90
13817;DHT22;6979;52.116;5.286;2023-04-01T15:28:32;15.60;99.90
13817;DHT22;6979;52.116;5.286;2023-04-01T15:31:15;15.60;99.90
13817;DHT22;6979;52.116;5.286;2023-04-01T15:34:07;15.60;99.90
13817;DHT22;6979;52.116;5.286;2023-04-01T15:36:52;15.50;99.90
13817;DHT22;6979;52.116;5.286;2023-04-01T15:39:27;15.50;99.90
13817;DHT22;6979;52.116;5.286;2023-04-01T15:42:16;15.50;99.90
13817;DHT22;6979;52.116;5.286;2023-04-01T15:44:58;15.50;99.90
13817;DHT22;6979;52.116;5.286;2023-04-01T15:47:53;15.50;99.90
13817;DHT22;6979;52.116;5.286;2023-04-01T15:51:01;15.40;99.90
13817;DHT22;6979;52.116;5.286;2023-04-01T15:53:54;15.40;99.90
13817;DHT22;6979;52.116;5.286;2023-04-01T15:56:44;15.40;99.90
13817;DHT22;6979;52.116;5.286;2023-04-01T15:59:22;15.40;99.90
13817;DHT22;6979;52.116;5.286;2023-04-01T16:01:59;15.40;99.90
13817;DHT22;6979;52.116;5.286;2023-04-01T16:04:46;15.40;99.90
13817;DHT22;6979;52.116;5.286;2023-04-01T16:07:32;15.30;99.90
13817;DHT22;6979;52.116;5.286;2023-04-01T16:13:31;15.30;99.90
13817;DHT22;6979;52.116;5.286;2023-04-01T16:16:09;15.30;99.90
13817;DHT22;6979;52.116;5.286;2023-04-01T16:19:08;15.30;99.90
13817;DHT22;6979;52.116;5.286;2023-04-01T16:21:46;15.20;99.90
13817;DHT22;6979;52.116;5.286;2023-04-01T16:24:22;15.20;99.90
13817;DHT22;6979;52.116;5.286;2023-04-01T16:26:54;15.20;99.90
13817;DHT22;6979;52.116;5.286;2023-04-01T16:29:29;15.20;99.90
13817;DHT22;6979;52.116;5.286;2023-04-01T16:32:16;15.10;99.90
13817;DHT22;6979;52.116;5.286;2023-04-01T16:34:47;15.10;99.90
13817;DHT22;6979;52.116;5.286;2023-04-01T16:37:33;15.10;99.90
13817;DHT22;6979;52.116;5.286;2023-04-01T16:40:16;15.10;99.90
13817;DHT22;6979;52.116;5.286;2023-04-01T16:42:50;15.10;99.90
13817;DHT22;6979;52.116;5.286;2023-04-01T16:45:32;15.10;99.90
13817;DHT22;6979;52.116;5.286;2023-04-01T16:48:12;15.00;99.90
13817;DHT22;6979;52.116;5.286;2023-04-01T16:50:51;15.00;99.90
13817;DHT22;6979;52.116;5.286;2023-04-01T16:53:25;14.90;99.90
13817;DHT22;6979;52.116;5.286;2023-04-01T16:56:07;14.90;99.90
13817;DHT22;6979;52.116;5.286;2023-04-01T16:58:41;14.90;99.90
13817;DHT22;6979;52.116;5.286;2023-04-01T17:01:12;14.80;99.90
13817;DHT22;6979;52.116;5.286;2023-04-01T17:03:44;14.80;99.90
13817;DHT22;6979;52.116;5.286;2023-04-01T17:06:22;14.80;99.90
13817;DHT22;6979;52.116;5.286;2023-04-01T17:09:14;14.70;99.90
13817;DHT22;6979;52.116;5.286;2023-04-01T17:11:52;14.70;99.90
13817;DHT22;6979;52.116;5.286;2023-04-01T17:14:29;14.70;99.90
13817;DHT22;6979;52.116;5.286;2023-04-01T17:17:26;14.60;99.90
13817;DHT22;6979;52.116;5.286;2023-04-01T17:20:12;14.60;99.90
13817;DHT22;6979;52.116;5.286;2023-04-01T17:22:46;14.60;99.90
13817;DHT22;6979;52.116;5.286;2023-04-01T17:25:37;14.50;99.90
13817;DHT22;6979;52.116;5.286;2023-04-01T17:28:13;14.50;99.90
13817;DHT22;6979;52.116;5.286;2023-04-01T17:30:45;14.50;99.90
13817;DHT22;6979;52.116;5.286;2023-04-01T17:33:27;14.40;99.90
13817;DHT22;6979;52.116;5.286;2023-04-01T17:36:00;14.40;99.90
13817;DHT22;6979;52.116;5.286;2023-04-01T17:38:50;14.40;99.90
13817;DHT22;6979;52.116;5.286;2023-04-01T17:41:30;14.40;99.90
13817;DHT22;6979;52.116;5.286;2023-04-01T17:44:15;14.30;99.90
13817;DHT22;6979;52.116;5.286;2023-04-01T17:46:56;14.30;99.90
13817;DHT22;6979;52.116;5.286;2023-04-01T17:49:33;14.30;99.90
13817;DHT22;6979;52.116;5.286;2023-04-01T17:52:09;14.20;99.90
13817;DHT22;6979;52.116;5.286;2023-04-01T17:54:46;14.20;99.90
13817;DHT22;6979;52.116;5.286;2023-04-01T17:57:34;14.20;99.90
13817;DHT22;6979;52.116;5.286;2023-04-01T18:00:21;14.20;99.90
13817;DHT22;6979;52.116;5.286;2023-04-01T18:02:59;14.20;99.90
13817;DHT22;6979;52.116;5.286;2023-04-01T18:05:33;14.10;99.90
13817;DHT22;6979;52.116;5.286;2023-04-01T18:08:12;14.10;99.90
13817;DHT22;6979;52.116;5.286;2023-04-01T18:10:55;14.10;99.90
13817;DHT22;6979;52.116;5.286;2023-04-01T18:16:31;14.00;99.90
13817;DHT22;6979;52.116;5.286;2023-04-01T18:19:16;13.90;99.90
13817;DHT22;6979;52.116;5.286;2023-04-01T18:21:47;13.90;99.90
13817;DHT22;6979;52.116;5.286;2023-04-01T18:24:23;13.90;99.90
13817;DHT22;6979;52.116;5.286;2023-04-01T18:27:02;13.90;99.90
13817;DHT22;6979;52.116;5.286;2023-04-01T18:29:36;13.90;99.90
13817;DHT22;6979;52.116;5.286;2023-04-01T18:32:22;13.90;99.90
13817;DHT22;6979;52.116;5.286;2023-04-01T18:34:56;13.80;99.90
13817;DHT22;6979;52.116;5.286;2023-04-01T18:37:31;13.80;99.90
13817;DHT22;6979;52.116;5.286;2023-04-01T18:40:10;13.80;99.90
13817;DHT22;6979;52.116;5.286;2023-04-01T18:42:45;13.80;99.90
13817;DHT22;6979;52.116;5.286;2023-04-01T18:45:21;13.80;99.90
13817;DHT22;6979;52.116;5.286;2023-04-01T18:47:58;13.80;99.90
13817;DHT22;6979;52.116;5.286;2023-04-01T18:50:32;13.70;99.90